sensor_id;sensor_type;location;lat;lon;timestamp;P1;durP1;ratioP1;P2;durP2;ratioP2
32146;SDS011;32190;49.112;8.598;2022-09-16T00:01:09;3.33;;;0.80;;
32146;SDS011;32190;49.112;8.598;2022-09-16T00:07:04;0.77;;;0.57;;
32146;SDS011;32190;49.112;8.598;2022-09-16T00:12:55;0.65;;;0.65;;
32146;SDS011;32190;49.112;8.598;2022-09-16T00:18:46;1.15;;;0.45;;
32146;SDS011;32190;49.112;8.598;2022-09-16T00:24:37;0.50;;;0.50;;
32146;SDS011;32190;49.112;8.598;2022-09-16T00:30:27;1.55;;;0.80;;
32146;SDS011;32190;49.112;8.598;2022-09-16T00:36:18;0.98;;;0.60;;
32146;SDS011;32190;49.112;8.598;2022-09-16T00:42:09;0.50;;;0.50;;
32146;SDS011;32190;49.112;8.598;2022-09-16T00:48:02;2.30;;;0.98;;
32146;SDS011;32190;49.112;8.598;2022-09-16T00:53:56;0.40;;;0.40;;
32146;SDS011;32190;49.112;8.598;2022-09-16T00:59:52;0.50;;;0.50;;
32146;SDS011;32190;49.112;8.598;2022-09-16T01:05:45;0.40;;;0.40;;
32146;SDS011;32190;49.112;8.598;2022-09-16T01:11:36;1.23;;;0.60;;
32146;SDS011;32190;49.112;8.598;2022-09-16T01:41:54;0.43;;;0.43;;
32146;SDS011;32190;49.112;8.598;2022-09-16T01:48:09;0.43;;;0.43;;
32146;SDS011;32190;49.112;8.598;2022-09-16T01:54:11;0.47;;;0.47;;
32146;SDS011;32190;49.112;8.598;2022-09-16T02:00:08;0.60;;;0.60;;
32146;SDS011;32190;49.112;8.598;2022-09-16T02:06:10;0.47;;;0.47;;
32146;SDS011;32190;49.112;8.598;2022-09-16T02:12:07;0.30;;;0.30;;
32146;SDS011;32190;49.112;8.598;2022-09-16T02:18:09;0.45;;;0.45;;
32146;SDS011;32190;49.112;8.598;2022-09-16T02:24:03;0.38;;;0.35;;
32146;SDS011;32190;49.112;8.598;2022-09-16T02:30:00;0.60;;;0.60;;
32146;SDS011;32190;49.112;8.598;2022-09-16T02:35:55;0.40;;;0.40;;
32146;SDS011;32190;49.112;8.598;2022-09-16T02:41:48;0.50;;;0.50;;
32146;SDS011;32190;49.112;8.598;2022-09-16T03:00:25;0.90;;;0.40;;
32146;SDS011;32190;49.112;8.598;2022-09-16T03:06:22;1.42;;;0.63;;
32146;SDS011;32190;49.112;8.598;2022-09-16T03:12:17;0.38;;;0.38;;
32146;SDS011;32190;49.112;8.598;2022-09-16T03:18:36;1.15;;;0.55;;
32146;SDS011;32190;49.112;8.598;2022-09-16T03:24:33;0.57;;;0.57;;
32146;SDS011;32190;49.112;8.598;2022-09-16T03:30:53;1.85;;;0.60;;
32146;SDS011;32190;49.112;8.598;2022-09-16T03:37:07;0.52;;;0.52;;
32146;SDS011;32190;49.112;8.598;2022-09-16T03:43:08;0.52;;;0.52;;
32146;SDS011;32190;49.112;8.598;2022-09-16T03:49:01;0.50;;;0.50;;
32146;SDS011;32190;49.112;8.598;2022-09-16T03:54:51;0.55;;;0.40;;
32146;SDS011;32190;49.112;8.598;2022-09-16T04:00:42;1.25;;;0.50;;
32146;SDS011;32190;49.112;8.598;2022-09-16T04:06:37;1.55;;;0.40;;
32146;SDS011;32190;49.112;8.598;2022-09-16T04:12:27;1.48;;;0.80;;
32146;SDS011;32190;49.112;8.598;2022-09-16T04:18:18;0.30;;;0.30;;
32146;SDS011;32190;49.112;8.598;2022-09-16T04:24:09;1.50;;;0.95;;
32146;SDS011;32190;49.112;8.598;2022-09-16T04:29:59;0.40;;;0.40;;
32146;SDS011;32190;49.112;8.598;2022-09-16T04:35:50;0.98;;;0.80;;
32146;SDS011;32190;49.112;8.598;2022-09-16T04:41:40;0.93;;;0.65;;
32146;SDS011;32190;49.112;8.598;2022-09-16T04:47:31;0.82;;;0.50;;
32146;SDS011;32190;49.112;8.598;2022-09-16T04:53:21;0.52;;;0.52;;
32146;SDS011;32190;49.112;8.598;2022-09-16T04:59:12;0.50;;;0.50;;
32146;SDS011;32190;49.112;8.598;2022-09-16T05:05:03;1.20;;;0.82;;
32146;SDS011;32190;49.112;8.598;2022-09-16T05:10:53;1.92;;;0.93;;
32146;SDS011;32190;49.112;8.598;2022-09-16T05:16:44;0.80;;;0.80;;
32146;SDS011;32190;49.112;8.598;2022-09-16T05:22:35;1.70;;;0.68;;
32146;SDS011;32190;49.112;8.598;2022-09-16T05:28:26;0.63;;;0.60;;
32146;SDS011;32190;49.112;8.598;2022-09-16T05:34:18;0.60;;;0.60;;
32146;SDS011;32190;49.112;8.598;2022-09-16T05:40:10;0.65;;;0.50;;
32146;SDS011;32190;49.112;8.598;2022-09-16T05:46:01;0.70;;;0.70;;
32146;SDS011;32190;49.112;8.598;2022-09-16T05:51:52;0.70;;;0.70;;
32146;SDS011;32190;49.112;8.598;2022-09-16T05:57:43;1.42;;;0.85;;
32146;SDS011;32190;49.112;8.598;2022-09-16T06:03:35;1.23;;;0.60;;
32146;SDS011;32190;49.112;8.598;2022-09-16T06:09:28;0.65;;;0.65;;
32146;SDS011;32190;49.112;8.598;2022-09-16T06:15:18;1.20;;;0.70;;
32146;SDS011;32190;49.112;8.598;2022-09-16T06:21:12;0.98;;;0.70;;
32146;SDS011;32190;49.112;8.598;2022-09-16T06:27:02;1.20;;;0.60;;
32146;SDS011;32190;49.112;8.598;2022-09-16T06:32:53;0.60;;;0.47;;
32146;SDS011;32190;49.112;8.598;2022-09-16T06:38:44;0.88;;;0.65;;
32146;SDS011;32190;49.112;8.598;2022-09-16T06:44:36;1.25;;;0.68;;
32146;SDS011;32190;49.112;8.598;2022-09-16T06:50:26;0.55;;;0.50;;
32146;SDS011;32190;49.112;8.598;2022-09-16T06:56:17;0.35;;;0.35;;
32146;SDS011;32190;49.112;8.598;2022-09-16T07:02:09;0.75;;;0.45;;
32146;SDS011;32190;49.112;8.598;2022-09-16T07:08:00;0.43;;;0.40;;
32146;SDS011;32190;49.112;8.598;2022-09-16T07:13:51;0.77;;;0.77;;
32146;SDS011;32190;49.112;8.598;2022-09-16T07:19:42;0.50;;;0.50;;
32146;SDS011;32190;49.112;8.598;2022-09-16T07:25:33;0.30;;;0.30;;
32146;SDS011;32190;49.112;8.598;2022-09-16T07:31:26;1.88;;;0.68;;
32146;SDS011;32190;49.112;8.598;2022-09-16T07:37:18;0.50;;;0.40;;
32146;SDS011;32190;49.112;8.598;2022-09-16T07:43:10;0.40;;;0.40;;
32146;SDS011;32190;49.112;8.598;2022-09-16T07:49:01;1.00;;;0.55;;
32146;SDS011;32190;49.112;8.598;2022-09-16T07:54:57;0.47;;;0.47;;
32146;SDS011;32190;49.112;8.598;2022-09-16T08:00:48;0.65;;;0.65;;
32146;SDS011;32190;49.112;8.598;2022-09-16T08:06:39;1.83;;;0.60;;
32146;SDS011;32190;49.112;8.598;2022-09-16T08:12:30;0.85;;;0.38;;
32146;SDS011;32190;49.112;8.598;2022-09-16T08:18:22;0.50;;;0.50;;
32146;SDS011;32190;49.112;8.598;2022-09-16T08:24:19;0.50;;;0.40;;
32146;SDS011;32190;49.112;8.598;2022-09-16T08:30:09;1.98;;;0.77;;
32146;SDS011;32190;49.112;8.598;2022-09-16T08:36:02;1.27;;;1.05;;
32146;SDS011;32190;49.112;8.598;2022-09-16T08:42:08;0.68;;;0.68;;
32146;SDS011;32190;49.112;8.598;2022-09-16T08:54:31;0.73;;;0.50;;
32146;SDS011;32190;49.112;8.598;2022-09-16T09:00:45;0.80;;;0.80;;
32146;SDS011;32190;49.112;8.598;2022-09-16T09:12:38;1.58;;;1.33;;
32146;SDS011;32190;49.112;8.598;2022-09-16T09:18:35;0.60;;;0.60;;
32146;SDS011;32190;49.112;8.598;2022-09-16T09:37:17;2.65;;;1.00;;
32146;SDS011;32190;49.112;8.598;2022-09-16T09:50:21;1.02;;;0.93;;
32146;SDS011;32190;49.112;8.598;2022-09-16T09:56:46;0.75;;;0.75;;
32146;SDS011;32190;49.112;8.598;2022-09-16T10:02:39;2.38;;;0.80;;
32146;SDS011;32190;49.112;8.598;2022-09-16T10:14:36;1.92;;;1.10;;
32146;SDS011;32190;49.112;8.598;2022-09-16T10:20:28;0.80;;;0.80;;
32146;SDS011;32190;49.112;8.598;2022-09-16T10:26:40;0.73;;;0.73;;
32146;SDS011;32190;49.112;8.598;2022-09-16T10:33:01;1.15;;;1.02;;
32146;SDS011;32190;49.112;8.598;2022-09-16T10:38:56;1.38;;;0.82;;
32146;SDS011;32190;49.112;8.598;2022-09-16T10:45:02;0.93;;;0.82;;
32146;SDS011;32190;49.112;8.598;2022-09-16T10:51:04;2.38;;;1.60;;
32146;SDS011;32190;49.112;8.598;2022-09-16T10:57:18;1.40;;;1.15;;
32146;SDS011;32190;49.112;8.598;2022-09-16T11:09:27;0.65;;;0.65;;
32146;SDS011;32190;49.112;8.598;2022-09-16T11:15:34;1.52;;;1.25;;
32146;SDS011;32190;49.112;8.598;2022-09-16T11:45:48;0.75;;;0.75;;
32146;SDS011;32190;49.112;8.598;2022-09-16T11:52:00;0.60;;;0.60;;
32146;SDS011;32190;49.112;8.598;2022-09-16T11:57:57;0.47;;;0.47;;
32146;SDS011;32190;49.112;8.598;2022-09-16T12:03:59;0.60;;;0.60;;
32146;SDS011;32190;49.112;8.598;2022-09-16T12:16:01;0.52;;;0.30;;
32146;SDS011;32190;49.112;8.598;2022-09-16T12:21:59;0.40;;;0.40;;
32146;SDS011;32190;49.112;8.598;2022-09-16T12:28:14;0.40;;;0.40;;
32146;SDS011;32190;49.112;8.598;2022-09-16T12:35:10;0.65;;;0.55;;
32146;SDS011;32190;49.112;8.598;2022-09-16T12:41:08;0.93;;;0.50;;
32146;SDS011;32190;49.112;8.598;2022-09-16T12:47:17;0.40;;;0.40;;
32146;SDS011;32190;49.112;8.598;2022-09-16T12:59:42;0.35;;;0.35;;
32146;SDS011;32190;49.112;8.598;2022-09-16T13:05:51;1.77;;;0.35;;
32146;SDS011;32190;49.112;8.598;2022-09-16T13:11:55;0.60;;;0.40;;
32146;SDS011;32190;49.112;8.598;2022-09-16T13:17:46;0.32;;;0.30;;
32146;SDS011;32190;49.112;8.598;2022-09-16T13:23:45;0.40;;;0.40;;
32146;SDS011;32190;49.112;8.598;2022-09-16T13:29:44;1.17;;;0.57;;
32146;SDS011;32190;49.112;8.598;2022-09-16T13:35:39;1.48;;;0.30;;
32146;SDS011;32190;49.112;8.598;2022-09-16T13:41:38;0.20;;;0.20;;
32146;SDS011;32190;49.112;8.598;2022-09-16T13:47:35;0.55;;;0.40;;
32146;SDS011;32190;49.112;8.598;2022-09-16T13:53:30;1.30;;;0.60;;
32146;SDS011;32190;49.112;8.598;2022-09-16T14:06:02;0.63;;;0.35;;
32146;SDS011;32190;49.112;8.598;2022-09-16T14:12:31;0.50;;;0.30;;
32146;SDS011;32190;49.112;8.598;2022-09-16T14:18:50;0.40;;;0.32;;
32146;SDS011;32190;49.112;8.598;2022-09-16T14:24:56;1.48;;;0.50;;
32146;SDS011;32190;49.112;8.598;2022-09-16T14:36:47;0.52;;;0.52;;
32146;SDS011;32190;49.112;8.598;2022-09-16T14:42:47;0.43;;;0.43;;
32146;SDS011;32190;49.112;8.598;2022-09-16T14:48:43;0.35;;;0.28;;
32146;SDS011;32190;49.112;8.598;2022-09-16T14:54:41;0.30;;;0.30;;
32146;SDS011;32190;49.112;8.598;2022-09-16T15:06:43;0.28;;;0.28;;
32146;SDS011;32190;49.112;8.598;2022-09-16T15:12:51;0.15;;;0.10;;
32146;SDS011;32190;49.112;8.598;2022-09-16T15:24:48;0.85;;;0.30;;
32146;SDS011;32190;49.112;8.598;2022-09-16T15:30:45;0.50;;;0.40;;
32146;SDS011;32190;49.112;8.598;2022-09-16T15:36:39;0.90;;;0.50;;
32146;SDS011;32190;49.112;8.598;2022-09-16T15:42:30;0.60;;;0.55;;
32146;SDS011;32190;49.112;8.598;2022-09-16T15:48:21;1.05;;;0.30;;
32146;SDS011;32190;49.112;8.598;2022-09-16T16:00:11;0.40;;;0.40;;
32146;SDS011;32190;49.112;8.598;2022-09-16T16:06:03;1.75;;;0.30;;
32146;SDS011;32190;49.112;8.598;2022-09-16T16:11:55;0.43;;;0.40;;
32146;SDS011;32190;49.112;8.598;2022-09-16T16:17:46;0.30;;;0.30;;
32146;SDS011;32190;49.112;8.598;2022-09-16T16:23:38;0.20;;;0.20;;
32146;SDS011;32190;49.112;8.598;2022-09-16T16:29:29;0.80;;;0.45;;
32146;SDS011;32190;49.112;8.598;2022-09-16T16:35:20;0.13;;;0.13;;
32146;SDS011;32190;49.112;8.598;2022-09-16T16:41:11;0.20;;;0.20;;
32146;SDS011;32190;49.112;8.598;2022-09-16T16:47:02;0.20;;;0.20;;
32146;SDS011;32190;49.112;8.598;2022-09-16T16:52:53;0.40;;;0.30;;
32146;SDS011;32190;49.112;8.598;2022-09-16T16:58:44;0.57;;;0.25;;
32146;SDS011;32190;49.112;8.598;2022-09-16T17:04:35;0.40;;;0.20;;
32146;SDS011;32190;49.112;8.598;2022-09-16T17:10:25;0.65;;;0.40;;
32146;SDS011;32190;49.112;8.598;2022-09-16T17:16:19;0.20;;;0.20;;
32146;SDS011;32190;49.112;8.598;2022-09-16T17:22:13;0.40;;;0.30;;
32146;SDS011;32190;49.112;8.598;2022-09-16T17:28:04;0.20;;;0.20;;
32146;SDS011;32190;49.112;8.598;2022-09-16T17:33:56;1.02;;;0.30;;
32146;SDS011;32190;49.112;8.598;2022-09-16T17:39:51;0.20;;;0.20;;
32146;SDS011;32190;49.112;8.598;2022-09-16T17:45:45;0.70;;;0.20;;
32146;SDS011;32190;49.112;8.598;2022-09-16T17:51:35;0.30;;;0.30;;
32146;SDS011;32190;49.112;8.598;2022-09-16T17:57:27;0.10;;;0.10;;
32146;SDS011;32190;49.112;8.598;2022-09-16T18:03:17;0.28;;;0.20;;
32146;SDS011;32190;49.112;8.598;2022-09-16T18:09:11;0.20;;;0.20;;
32146;SDS011;32190;49.112;8.598;2022-09-16T18:15:12;1.00;;;0.30;;
32146;SDS011;32190;49.112;8.598;2022-09-16T18:21:06;0.20;;;0.20;;
32146;SDS011;32190;49.112;8.598;2022-09-16T18:27:04;0.20;;;0.20;;
32146;SDS011;32190;49.112;8.598;2022-09-16T18:32:54;0.35;;;0.30;;
32146;SDS011;32190;49.112;8.598;2022-09-16T18:39:15;0.20;;;0.20;;
32146;SDS011;32190;49.112;8.598;2022-09-16T18:45:11;0.20;;;0.20;;
32146;SDS011;32190;49.112;8.598;2022-09-16T18:51:02;0.28;;;0.28;;
32146;SDS011;32190;49.112;8.598;2022-09-16T18:57:02;0.30;;;0.30;;
32146;SDS011;32190;49.112;8.598;2022-09-16T19:02:53;0.20;;;0.20;;
32146;SDS011;32190;49.112;8.598;2022-09-16T19:08:43;0.20;;;0.20;;
32146;SDS011;32190;49.112;8.598;2022-09-16T19:14:34;0.10;;;0.10;;
32146;SDS011;32190;49.112;8.598;2022-09-16T19:20:28;0.20;;;0.20;;
32146;SDS011;32190;49.112;8.598;2022-09-16T19:26:27;0.30;;;0.30;;
32146;SDS011;32190;49.112;8.598;2022-09-16T19:32:32;0.20;;;0.20;;
32146;SDS011;32190;49.112;8.598;2022-09-16T19:38:55;0.20;;;0.20;;
32146;SDS011;32190;49.112;8.598;2022-09-16T19:44:52;0.65;;;0.47;;
32146;SDS011;32190;49.112;8.598;2022-09-16T19:57:12;0.20;;;0.20;;
32146;SDS011;32190;49.112;8.598;2022-09-16T20:03:05;0.15;;;0.13;;
32146;SDS011;32190;49.112;8.598;2022-09-16T20:08:59;0.30;;;0.20;;
32146;SDS011;32190;49.112;8.598;2022-09-16T20:14:57;0.35;;;0.22;;
32146;SDS011;32190;49.112;8.598;2022-09-16T20:20:58;0.20;;;0.20;;
32146;SDS011;32190;49.112;8.598;2022-09-16T20:26:53;0.30;;;0.30;;
32146;SDS011;32190;49.112;8.598;2022-09-16T20:32:46;0.13;;;0.13;;
32146;SDS011;32190;49.112;8.598;2022-09-16T20:38:40;0.20;;;0.20;;
32146;SDS011;32190;49.112;8.598;2022-09-16T20:44:34;0.30;;;0.20;;
32146;SDS011;32190;49.112;8.598;2022-09-16T20:50:25;0.20;;;0.20;;
32146;SDS011;32190;49.112;8.598;2022-09-16T20:56:54;0.22;;;0.22;;
32146;SDS011;32190;49.112;8.598;2022-09-16T21:02:45;0.20;;;0.20;;
32146;SDS011;32190;49.112;8.598;2022-09-16T21:08:57;2.53;;;0.30;;
32146;SDS011;32190;49.112;8.598;2022-09-16T21:14:49;0.25;;;0.25;;
32146;SDS011;32190;49.112;8.598;2022-09-16T21:21:24;0.20;;;0.20;;
32146;SDS011;32190;49.112;8.598;2022-09-16T21:27:29;0.20;;;0.20;;
32146;SDS011;32190;49.112;8.598;2022-09-16T21:33:39;1.27;;;0.57;;
32146;SDS011;32190;49.112;8.598;2022-09-16T21:39:34;0.20;;;0.20;;
32146;SDS011;32190;49.112;8.598;2022-09-16T21:45:27;0.73;;;0.20;;
32146;SDS011;32190;49.112;8.598;2022-09-16T21:51:24;0.30;;;0.30;;
32146;SDS011;32190;49.112;8.598;2022-09-16T21:57:15;0.28;;;0.28;;
32146;SDS011;32190;49.112;8.598;2022-09-16T22:03:08;0.57;;;0.25;;
32146;SDS011;32190;49.112;8.598;2022-09-16T22:09:00;0.35;;;0.30;;
32146;SDS011;32190;49.112;8.598;2022-09-16T22:15:16;0.35;;;0.35;;
32146;SDS011;32190;49.112;8.598;2022-09-16T22:21:13;0.28;;;0.28;;
32146;SDS011;32190;49.112;8.598;2022-09-16T22:27:04;0.47;;;0.30;;
32146;SDS011;32190;49.112;8.598;2022-09-16T22:33:00;1.20;;;0.20;;
32146;SDS011;32190;49.112;8.598;2022-09-16T22:38:57;0.20;;;0.20;;
32146;SDS011;32190;49.112;8.598;2022-09-16T22:44:50;0.30;;;0.30;;
32146;SDS011;32190;49.112;8.598;2022-09-16T22:50:42;0.20;;;0.20;;
32146;SDS011;32190;49.112;8.598;2022-09-16T22:56:48;0.20;;;0.20;;
32146;SDS011;32190;49.112;8.598;2022-09-16T23:02:39;0.20;;;0.20;;
32146;SDS011;32190;49.112;8.598;2022-09-16T23:08:30;3.03;;;0.30;;
32146;SDS011;32190;49.112;8.598;2022-09-16T23:14:25;1.55;;;0.20;;
32146;SDS011;32190;49.112;8.598;2022-09-16T23:20:16;0.20;;;0.20;;
32146;SDS011;32190;49.112;8.598;2022-09-16T23:26:07;0.20;;;0.20;;
32146;SDS011;32190;49.112;8.598;2022-09-16T23:32:05;0.20;;;0.20;;
32146;SDS011;32190;49.112;8.598;2022-09-16T23:37:56;0.20;;;0.20;;
32146;SDS011;32190;49.112;8.598;2022-09-16T23:43:47;0.20;;;0.20;;
32146;SDS011;32190;49.112;8.598;2022-09-16T23:49:38;0.20;;;0.20;;
32146;SDS011;32190;49.112;8.598;2022-09-16T23:55:29;0.30;;;0.30;;
